עמוד ראשי
METAR-TAF:

METAR-TAF

שדות תעופה :

נואקשוט, מאוריטניה

קו רוחב: 18-18-36N, קו אורך: 015-58-11W, גובה: 3מטר

תצפית מזג אוויר נוכחית

הדו"ח נערך לפני 44דקות, בשעה 01:00 UTC
רוח 12קשר מכיוון צפון/צפון-מערב
טמפרטורת 26 צלסיוס
לחות 70%
לחץ 1011 hPa
ראות 10 קילומטר או יותר
ללא עננים שבסיסם נמוך מ 5000 רגל או קומולונימבוס

METAR: GQNO 130100Z 34012KT CAVOK 26/20 Q1011 NOSIG

זמן: 01:44 (01:44 UTC)

תחזית

הדו"ח נערך לפני 2 שעות ו 44דקות, בשעה 23:00 UTC
תחזית בתוקף מ 13 ב 00 UTC עד 14 ב 06 UTC
רוח 15קשר מכיוון צפון/צפון-מערב
ראות: 8000מטר
יעשה מ
13 ב 10 UTC עד 13 ב 12 UTC
רוח 15קשר מכיוון צפון-מזרח
הסתברות 30% :
זמנית מ -
13 ב 13 UTC עד 13 ב 16 UTC
ראות: 4000מטר
חול נושב
יעשה מ
13 ב 15 UTC עד 13 ב 17 UTC
רוח 15קשר מכיוון צפון/צפון-מערב

TAF: GQNO 122300Z 1300/1406 33015KT 8000 NSC BECMG 1310/1312 04015KT PROB30 TEMPO 1313/1316 4000 BLSA BECMG 1315/1317 33015KT

תצפיות ותחזיות מזג אוויר לגבי יותר מ- 4,000 שדות תעופה ברחבי העולם. דוחות METAR ו- TAF.

התחנות הזמינות מסומנות בנקודות צהובות ואדומות על גבי המפה.

העבר את העכבר לנקודה הצבעונית על מנת לראות את שם התחנה.

לאחר מכן, לחץ כדי לראות את תוכן ואת תחזיות מזג האוויר.

כדי לשנות את המפה: לחץ על הכפתורים הירוקים עם הפלוס השחור כדי להתקרב; על הכפתור הירוק עם המקף כדי להתרחק; או בחיצים הירוקים למפות סמוכות.


METAR-TAF: